Brier Hill, PA (15415)

8:19 PM EDT on October 24, 2014 (GMT -0400)
Nick's Weather | Change Station
CLOSE
Current Station
Personal Weather Station
Location: Uniontown, PA
Elevation: 1060 ft
Nearby Weather Stations

Elev 1060 ft 39.90 °N, 79.74 °W | Updated 1 second ago

Clear
Clear
45.1 °F
Feels Like 45 °F
N
0.0
Wind Variable Wind from SE
Gusts 0.0 mph

Today
High -- | Low -- °F
--% Chance of Precip.
Yesterday
High -- | Low -- °F
Precip. -- in
7:39 AM 6:26 PM
New Moon, 1% visible
Pressure 30.05 in
Visibility 10.0 miles
Clouds Clear
Windchill 45 °F
Dew Point 40 °F
Humidity 81%
Rainfall 0.00 in
Snow Depth Not available.
UV 0 out of 12
Pollen .70 out of 12
Air Quality Not available.
Flu Activity Sporadic
METAR KMGW 242353Z 00000KT 10SM CLR 12/03 A3004 RMK AO2 SLP174 T01170028 10172 20117 53005

More Conditions Fewer Conditions

Pressure 30.05 in
Visibility 10.0 miles
Clouds Clear
Windchill 45 °F
Dew Point 40 °F
Humidity 81%
Rainfall 0.00 in
Snow Depth Not available.
UV 0 out of 12
Pollen .70 out of 12
Air Quality Not available.
Flu Activity Sporadic
METAR KMGW 242353Z 00000KT 10SM CLR 12/03 A3004 RMK AO2 SLP174 T01170028 10172 20117 53005

More Conditions Fewer Conditions

10-Day Weather Forecast

Almanac

Astronomy

Oct. 24, 2014 Rise Set
Actual Time 7:39 AM EDT 6:26 PM EDT
Civil Twilight 7:11 AM EDT 6:54 PM EDT
Nautical Twilight 6:40 AM EDT 7:26 PM EDT
Astronomical Twilight 6:08 AM EDT 7:57 PM EDT
Moon 8:16 AM EDT (10/24) 7:05 PM EDT (10/24)
Length of Visible Light 11h 42m
Length of Day
10h 47m
Tomorrow will be 2m 26s shorter.
New Moon, 1% of the Moon is Illuminated
Today
New Moon
Oct 30
First Quarter
Nov 6
Full
Nov 14
Last Quarter
Nov 22
New

Today's Extremes

State Highs State Lows

Community

WunderPhotos

Upload Photos

1,764,720 photos uploaded!

WunderBlogs® & News

Nearby

Snow Depth

Station Depth Elevation
No new snow has been reported.

Earthquake Activity

City Distance Mag. Time & Date
No recent earthquake activity has been reported nearby.
Minimum magnitude displayed is 2.5.

Coastal Water Temperatures

Place Temperature
No Stations Reporting

Nearby Weather Stations